Time;durP1;ratioP1;P1;durP2;ratioP2;P2;SDS_P1;SDS_P2;PMS_P1;PMS_P2;Temp;Humidity;BMP_temperature;BMP_pressure;BME280_temperature;BME280_humidity;BME280_pressure;Samples;Min_cycle;Max_cycle;Signal;HPM_P1;HPM_P2
2023/08/11 00:02:24;;;;;;;6.07;4.95;;;16.70;99.90;;;;;;5043708;28;20116;-60
2023/08/11 00:04:52;;;;;;;10.57;6.03;;;16.70;99.90;;;;;;5050370;28;20128;-59
2023/08/11 00:07:18;;;;;;;10.13;6.43;;;16.60;99.90;;;;;;5040125;28;20061;-59
2023/08/11 00:09:44;;;;;;;7.65;6.13;;;16.60;99.90;;;;;;5054486;28;20037;-60
2023/08/11 00:12:10;;;;;;;7.88;6.25;;;16.50;99.90;;;;;;5042979;28;20041;-59
2023/08/11 00:14:36;;;;;;;9.30;6.85;;;16.50;99.90;;;;;;5051253;28;20054;-60
2023/08/11 00:17:03;;;;;;;10.32;7.43;;;16.50;99.90;;;;;;5033875;28;20045;-60
2023/08/11 00:19:29;;;;;;;9.45;6.63;;;16.50;99.90;;;;;;5029727;28;20060;-60
2023/08/11 00:21:56;;;;;;;9.75;6.85;;;16.40;99.90;;;;;;5031027;28;20045;-60
2023/08/11 00:24:23;;;;;;;8.55;6.15;;;16.40;99.90;;;;;;5049262;28;20496;-60
2023/08/11 00:26:49;;;;;;;8.02;6.95;;;16.40;99.90;;;;;;5046534;28;20045;-59
2023/08/11 00:29:15;;;;;;;8.05;6.85;;;16.30;99.90;;;;;;5046772;28;20034;-59
2023/08/11 00:31:41;;;;;;;7.00;5.75;;;16.30;99.90;;;;;;5046487;28;20395;-58
2023/08/11 00:34:07;;;;;;;8.85;7.10;;;16.30;99.90;;;;;;5045598;28;20037;-60
2023/08/11 00:36:34;;;;;;;15.60;7.25;;;16.30;99.90;;;;;;5046321;28;20055;-59
2023/08/11 00:39:00;;;;;;;9.38;7.18;;;16.20;99.90;;;;;;5048852;28;20056;-60
2023/08/11 00:41:26;;;;;;;10.00;7.40;;;16.20;99.90;;;;;;5055433;28;20065;-59
2023/08/11 00:43:53;;;;;;;8.10;7.03;;;16.20;99.90;;;;;;5045198;28;20121;-59
2023/08/11 00:46:23;;;;;;;9.75;7.38;;;16.20;99.90;;;;;;5054309;28;20538;-60
2023/08/11 00:48:51;;;;;;;10.07;7.57;;;16.20;99.90;;;;;;5046784;28;20567;-60
2023/08/11 00:51:20;;;;;;;8.82;7.88;;;16.20;99.90;;;;;;5050050;28;20434;-60
2023/08/11 00:53:46;;;;;;;10.15;7.97;;;16.20;99.90;;;;;;5047695;28;20041;-59
2023/08/11 00:56:13;;;;;;;8.48;6.55;;;16.30;99.90;;;;;;5050990;28;20048;-60
2023/08/11 00:58:39;;;;;;;11.02;7.75;;;16.20;99.90;;;;;;5045541;28;20048;-60
2023/08/11 01:01:05;;;;;;;8.75;6.53;;;16.30;99.90;;;;;;5051117;28;20025;-60
2023/08/11 01:03:31;;;;;;;12.65;9.25;;;16.20;99.90;;;;;;5048104;28;20037;-60
2023/08/11 01:06:25;;;;;;;9.10;7.53;;;16.20;99.90;;;;;;5046441;28;20132;-60
2023/08/11 01:09:15;;;;;;;7.97;6.60;;;16.20;99.90;;;;;;5042051;28;20029;-60
2023/08/11 01:11:55;;;;;;;8.63;7.57;;;16.20;99.90;;;;;;5045480;28;20129;-59
2023/08/11 01:14:30;;;;;;;8.45;7.28;;;16.20;99.90;;;;;;5047693;28;20118;-60
2023/08/11 01:16:59;;;;;;;14.75;8.52;;;16.20;99.90;;;;;;5045112;28;20044;-60
2023/08/11 01:19:32;;;;;;;9.23;8.18;;;16.20;99.90;;;;;;5042876;28;20404;-60
2023/08/11 01:22:01;;;;;;;13.87;8.93;;;16.20;99.90;;;;;;5045631;28;20059;-60
2023/08/11 01:24:28;;;;;;;10.52;8.00;;;16.20;99.90;;;;;;5043820;28;20056;-60
2023/08/11 01:26:55;;;;;;;12.32;9.35;;;16.20;99.90;;;;;;5047793;28;20033;-60
2023/08/11 01:29:21;;;;;;;10.48;8.45;;;16.10;99.90;;;;;;5046886;28;20045;-60
2023/08/11 01:31:46;;;;;;;12.00;9.57;;;16.20;99.90;;;;;;5047258;28;20060;-60
2023/08/11 01:34:12;;;;;;;11.43;10.20;;;16.20;99.90;;;;;;5041676;28;20399;-60
2023/08/11 01:36:41;;;;;;;11.93;9.90;;;16.10;99.90;;;;;;5028545;28;20052;-60
2023/08/11 01:39:07;;;;;;;12.60;10.23;;;16.20;99.90;;;;;;5045131;28;20045;-60
2023/08/11 01:41:33;;;;;;;11.35;9.23;;;16.10;99.90;;;;;;5051614;28;20637;-61
2023/08/11 01:43:59;;;;;;;13.23;10.15;;;16.10;99.90;;;;;;5046069;28;20036;-60
2023/08/11 01:46:28;;;;;;;14.43;9.90;;;16.10;99.90;;;;;;5048234;28;20086;-61
2023/08/11 01:48:56;;;;;;;14.77;11.00;;;16.10;99.90;;;;;;5032102;28;20095;-60
2023/08/11 01:51:26;;;;;;;12.70;10.57;;;16.10;99.90;;;;;;5040045;28;20044;-59
2023/08/11 01:53:52;;;;;;;11.20;9.63;;;16.10;99.90;;;;;;5049707;28;20090;-60
2023/08/11 01:56:20;;;;;;;14.27;11.93;;;16.10;99.90;;;;;;5040805;28;20556;-60
2023/08/11 01:58:45;;;;;;;13.88;10.50;;;16.10;99.90;;;;;;5053084;28;20140;-61
2023/08/11 02:01:13;;;;;;;15.45;12.48;;;16.00;99.90;;;;;;5049341;28;20645;-60
2023/08/11 02:03:40;;;;;;;13.85;10.95;;;16.10;99.90;;;;;;5032490;28;20130;-60
2023/08/11 02:06:05;;;;;;;15.00;12.20;;;16.10;99.90;;;;;;5039650;28;20520;-60
2023/08/11 02:08:32;;;;;;;15.60;13.95;;;16.00;99.90;;;;;;5046873;28;20128;-60
2023/08/11 02:10:58;;;;;;;14.27;12.02;;;16.00;99.90;;;;;;5045389;28;20076;-60
2023/08/11 02:13:23;;;;;;;15.52;13.75;;;16.10;99.90;;;;;;5027385;28;20069;-60
2023/08/11 02:15:49;;;;;;;16.02;13.77;;;16.10;99.90;;;;;;5048544;28;20039;-60
2023/08/11 02:18:15;;;;;;;13.82;12.18;;;16.00;99.90;;;;;;5049894;28;20452;-59
2023/08/11 02:20:41;;;;;;;15.70;13.27;;;16.10;99.90;;;;;;5042459;28;20492;-60
2023/08/11 02:23:08;;;;;;;15.52;13.73;;;16.00;99.90;;;;;;5046060;28;20041;-59
2023/08/11 02:25:35;;;;;;;17.45;14.20;;;16.00;99.90;;;;;;5048001;28;20042;-61
2023/08/11 02:28:00;;;;;;;17.10;14.15;;;16.00;99.90;;;;;;5049929;28;20152;-60
2023/08/11 02:30:29;;;;;;;19.10;16.27;;;16.00;99.90;;;;;;5024653;28;20646;-59
2023/08/11 02:32:55;;;;;;;16.67;14.73;;;16.00;99.90;;;;;;5045210;28;20101;-60
2023/08/11 02:35:22;;;;;;;15.90;14.20;;;16.00;99.90;;;;;;5041525;28;20633;-60
2023/08/11 02:37:48;;;;;;;15.75;13.98;;;16.00;99.90;;;;;;5038825;28;20519;-60
2023/08/11 02:40:14;;;;;;;17.92;14.95;;;16.00;99.90;;;;;;5052489;28;20053;-61
2023/08/11 02:42:56;;;;;;;17.88;13.90;;;16.00;99.90;;;;;;5044103;28;20041;-61
2023/08/11 02:45:23;;;;;;;16.90;14.75;;;16.00;99.90;;;;;;5059148;28;20075;-60
2023/08/11 02:47:50;;;;;;;16.45;14.65;;;16.00;99.90;;;;;;5038895;28;20040;-60
2023/08/11 02:50:17;;;;;;;16.83;14.93;;;16.00;99.90;;;;;;5034850;28;20032;-60
2023/08/11 02:52:43;;;;;;;18.38;15.55;;;16.00;99.90;;;;;;5045630;28;20134;-60
2023/08/11 02:55:11;;;;;;;17.27;15.45;;;15.90;99.90;;;;;;5051646;28;20111;-60
2023/08/11 02:57:37;;;;;;;18.88;16.45;;;15.90;99.90;;;;;;5048671;28;20048;-60
2023/08/11 03:00:12;;;;;;;18.02;16.13;;;15.90;99.90;;;;;;5047913;28;20051;-60
2023/08/11 03:02:38;;;;;;;16.20;13.77;;;15.90;99.90;;;;;;5038951;28;20054;-59
2023/08/11 03:05:07;;;;;;;18.30;16.40;;;15.90;99.90;;;;;;5051885;28;20040;-60
2023/08/11 03:07:37;;;;;;;17.48;15.55;;;15.90;99.90;;;;;;5031670;28;20412;-60
2023/08/11 03:10:03;;;;;;;18.65;16.33;;;15.90;99.90;;;;;;5044640;28;20049;-61
2023/08/11 03:12:29;;;;;;;17.08;14.90;;;15.90;99.90;;;;;;5046750;28;20045;-61
2023/08/11 03:14:55;;;;;;;16.75;14.98;;;15.90;99.90;;;;;;5032066;28;20067;-60
2023/08/11 03:17:21;;;;;;;19.02;15.77;;;15.90;99.90;;;;;;5049154;28;20503;-61
2023/08/11 03:19:46;;;;;;;19.23;16.50;;;15.90;99.90;;;;;;5032385;28;20041;-60
2023/08/11 03:22:13;;;;;;;17.27;15.48;;;15.90;99.90;;;;;;5032383;28;20060;-60
2023/08/11 03:24:39;;;;;;;19.63;15.95;;;15.90;99.90;;;;;;5045179;28;20037;-60
2023/08/11 03:27:06;;;;;;;19.00;15.65;;;15.90;99.90;;;;;;5044784;28;20194;-59
2023/08/11 03:29:32;;;;;;;17.13;15.38;;;15.90;99.90;;;;;;5044079;28;20076;-59
2023/08/11 03:31:58;;;;;;;16.48;14.68;;;15.90;99.90;;;;;;5049466;28;20040;-60
2023/08/11 03:34:24;;;;;;;17.20;15.32;;;15.90;99.90;;;;;;5046635;28;20122;-60
2023/08/11 03:36:49;;;;;;;13.82;12.30;;;15.90;99.90;;;;;;5046804;28;20132;-60
2023/08/11 03:39:16;;;;;;;16.35;14.65;;;15.80;99.90;;;;;;5046451;28;20049;-60
2023/08/11 03:41:42;;;;;;;15.77;14.13;;;15.90;99.90;;;;;;5048510;28;20055;-60
2023/08/11 03:44:07;;;;;;;18.33;14.77;;;15.80;99.90;;;;;;5039063;28;20050;-59
2023/08/11 03:46:34;;;;;;;17.23;15.30;;;15.90;99.90;;;;;;5048361;28;20080;-60
2023/08/11 03:49:00;;;;;;;16.80;13.75;;;15.80;99.90;;;;;;5042446;28;20041;-60
2023/08/11 03:51:25;;;;;;;18.05;15.10;;;15.80;99.90;;;;;;5045544;28;20049;-60
2023/08/11 03:53:51;;;;;;;16.20;14.25;;;15.80;99.90;;;;;;5021845;28;20052;-61
2023/08/11 03:56:18;;;;;;;16.38;12.98;;;15.80;99.90;;;;;;5044456;28;20587;-60
2023/08/11 03:58:43;;;;;;;16.27;14.27;;;15.80;99.90;;;;;;5046034;28;20041;-60
2023/08/11 04:01:15;;;;;;;16.60;13.88;;;15.80;99.90;;;;;;5040459;28;20052;-60
2023/08/11 04:03:41;;;;;;;19.33;14.43;;;15.80;99.90;;;;;;5045168;28;20128;-59
2023/08/11 04:06:06;;;;;;;15.43;13.82;;;15.80;99.90;;;;;;5028918;28;20536;-60
2023/08/11 04:08:32;;;;;;;18.58;14.23;;;15.80;99.90;;;;;;5051421;28;20117;-60
2023/08/11 04:10:58;;;;;;;15.98;14.20;;;15.80;99.90;;;;;;5040990;28;20414;-60
2023/08/11 04:13:24;;;;;;;15.68;14.15;;;15.70;99.90;;;;;;5042556;28;20067;-60
2023/08/11 04:15:49;;;;;;;14.32;12.20;;;15.80;99.90;;;;;;5047934;28;20086;-59
2023/08/11 04:18:15;;;;;;;16.33;14.05;;;15.70;99.90;;;;;;5047626;28;20037;-60
2023/08/11 04:20:41;;;;;;;16.45;13.30;;;15.70;99.90;;;;;;5043566;28;20123;-60
2023/08/11 04:23:07;;;;;;;15.57;14.00;;;15.70;99.90;;;;;;5048254;28;20051;-60
2023/08/11 04:25:33;;;;;;;15.48;13.88;;;15.70;99.90;;;;;;5041064;28;20080;-60
2023/08/11 04:28:02;;;;;;;16.45;13.23;;;15.70;99.90;;;;;;5048133;28;20551;-59
2023/08/11 04:30:28;;;;;;;16.98;13.90;;;15.80;99.90;;;;;;5046996;28;20495;-60
2023/08/11 04:32:54;;;;;;;14.85;11.88;;;15.80;99.90;;;;;;5048486;28;20061;-59
2023/08/11 04:35:20;;;;;;;15.25;12.85;;;15.80;99.90;;;;;;5045372;28;20040;-59
2023/08/11 04:37:46;;;;;;;15.27;12.60;;;15.80;99.90;;;;;;5030578;28;20048;-60
2023/08/11 04:40:13;;;;;;;16.13;12.60;;;15.80;99.90;;;;;;5047279;28;20486;-60
2023/08/11 04:42:40;;;;;;;14.45;12.73;;;15.80;99.90;;;;;;5040010;28;20041;-60
2023/08/11 04:45:06;;;;;;;17.23;13.10;;;15.80;99.90;;;;;;5026496;28;20489;-60
2023/08/11 04:47:32;;;;;;;15.15;12.48;;;15.80;99.90;;;;;;5026664;28;20040;-63
2023/08/11 04:49:58;;;;;;;13.50;11.82;;;15.80;99.90;;;;;;5026696;28;20036;-63
2023/08/11 04:52:24;;;;;;;13.40;11.70;;;15.80;99.90;;;;;;5043686;28;20036;-63
2023/08/11 04:54:49;;;;;;;15.15;12.25;;;15.80;99.90;;;;;;5047569;28;20419;-63
2023/08/11 04:57:15;;;;;;;12.70;11.32;;;15.80;99.90;;;;;;5048537;28;20093;-64
2023/08/11 04:59:41;;;;;;;15.90;11.90;;;15.80;99.90;;;;;;5042213;28;20526;-64
2023/08/11 05:02:07;;;;;;;13.95;12.48;;;15.90;99.90;;;;;;5040282;28;20037;-63
2023/08/11 05:04:33;;;;;;;15.80;12.02;;;15.90;99.90;;;;;;5033296;28;20538;-63
2023/08/11 05:06:59;;;;;;;13.15;11.82;;;15.90;99.90;;;;;;5039660;28;20048;-62
2023/08/11 05:09:25;;;;;;;12.98;11.32;;;15.90;99.90;;;;;;5036720;28;20103;-62
2023/08/11 05:11:51;;;;;;;13.65;12.02;;;16.00;99.90;;;;;;5039822;28;20803;-63
2023/08/11 05:14:17;;;;;;;14.73;12.13;;;16.00;99.90;;;;;;5028383;28;20076;-63
2023/08/11 05:16:46;;;;;;;12.20;10.55;;;16.00;99.90;;;;;;5040746;28;20045;-62
2023/08/11 05:19:13;;;;;;;13.35;11.55;;;16.10;99.90;;;;;;5026106;28;20139;-63
2023/08/11 05:21:39;;;;;;;14.88;11.50;;;16.10;99.90;;;;;;5042164;28;20102;-64
2023/08/11 05:24:06;;;;;;;13.75;11.90;;;16.10;99.90;;;;;;5040076;28;20052;-63
2023/08/11 05:26:32;;;;;;;13.48;11.52;;;16.20;99.90;;;;;;5041712;28;20041;-63
2023/08/11 05:28:58;;;;;;;14.75;11.75;;;16.20;99.90;;;;;;5051177;28;20123;-62
2023/08/11 05:31:24;;;;;;;14.45;12.25;;;16.20;99.90;;;;;;5051525;28;20106;-63
2023/08/11 05:33:52;;;;;;;15.43;11.48;;;16.20;99.90;;;;;;5057530;28;20040;-63
2023/08/11 05:36:18;;;;;;;12.85;11.25;;;16.30;99.90;;;;;;5034486;28;20044;-63
2023/08/11 05:38:44;;;;;;;14.20;11.43;;;16.30;99.90;;;;;;5043581;28;20056;-63
2023/08/11 05:41:10;;;;;;;12.40;11.10;;;16.40;99.90;;;;;;5046954;28;20128;-63
2023/08/11 05:43:36;;;;;;;15.00;12.02;;;16.40;99.90;;;;;;5042054;28;20137;-65
2023/08/11 05:46:07;;;;;;;14.10;11.10;;;16.50;99.90;;;;;;5055173;28;20041;-64
2023/08/11 05:48:35;;;;;;;14.00;11.07;;;16.60;99.90;;;;;;5045683;28;20041;-63
2023/08/11 05:51:02;;;;;;;12.32;11.00;;;16.60;99.90;;;;;;5042793;28;20397;-63
2023/08/11 05:53:28;;;;;;;14.02;11.57;;;16.70;99.90;;;;;;5028208;28;20049;-63
2023/08/11 05:55:54;;;;;;;12.73;10.73;;;16.80;99.90;;;;;;5044099;28;20040;-60
2023/08/11 05:58:19;;;;;;;13.82;10.40;;;16.90;99.90;;;;;;5053158;28;20033;-61
2023/08/11 06:00:45;;;;;;;12.60;11.25;;;16.90;99.90;;;;;;5049000;28;20043;-60
2023/08/11 06:03:11;;;;;;;12.07;10.10;;;17.00;99.90;;;;;;5057043;28;20044;-60
2023/08/11 06:05:36;;;;;;;15.00;10.45;;;17.10;99.90;;;;;;5053283;28;20448;-60
2023/08/11 06:08:03;;;;;;;12.88;10.25;;;17.10;99.90;;;;;;5042340;28;20091;-61
2023/08/11 06:10:30;;;;;;;14.05;10.90;;;17.20;99.90;;;;;;5050584;28;20051;-61
2023/08/11 06:12:56;;;;;;;12.30;10.80;;;17.30;99.90;;;;;;5047327;28;20607;-60
2023/08/11 06:15:22;;;;;;;14.05;11.52;;;17.40;99.90;;;;;;5041718;28;20048;-61
2023/08/11 06:17:50;;;;;;;14.32;11.60;;;17.40;99.90;;;;;;5045811;28;20041;-60
2023/08/11 06:20:19;;;;;;;15.43;10.63;;;17.50;99.90;;;;;;5026878;28;20057;-62
2023/08/11 06:22:45;;;;;;;14.00;11.70;;;17.60;99.90;;;;;;5047409;28;20083;-63
2023/08/11 06:25:15;;;;;;;12.73;10.23;;;17.70;99.90;;;;;;5031406;28;20077;-63
2023/08/11 06:27:41;;;;;;;14.10;10.93;;;17.80;99.90;;;;;;5051342;28;20106;-62
2023/08/11 06:30:09;;;;;;;12.73;10.32;;;17.90;99.90;;;;;;5048958;28;20554;-62
2023/08/11 06:32:35;;;;;;;14.98;11.27;;;17.90;99.90;;;;;;5061001;28;20041;-63
2023/08/11 06:35:01;;;;;;;13.15;10.20;;;18.00;99.90;;;;;;5044602;28;20045;-63
2023/08/11 06:37:27;;;;;;;13.98;10.13;;;18.10;99.90;;;;;;5064039;28;20124;-63
2023/08/11 06:39:58;;;;;;;11.32;10.10;;;18.20;99.90;;;;;;5057865;28;20045;-64
2023/08/11 06:42:24;;;;;;;12.30;10.07;;;18.30;99.90;;;;;;5066015;28;20045;-63
2023/08/11 06:44:50;;;;;;;11.88;9.88;;;18.40;99.90;;;;;;5045063;28;20045;-64
2023/08/11 06:47:16;;;;;;;13.73;10.23;;;18.50;99.90;;;;;;5014019;28;20064;-63
2023/08/11 06:49:42;;;;;;;13.13;10.20;;;18.50;99.90;;;;;;5036492;28;20052;-64
2023/08/11 06:52:08;;;;;;;11.55;9.10;;;18.60;99.90;;;;;;5048172;28;20480;-64
2023/08/11 06:54:34;;;;;;;12.43;8.88;;;18.70;99.90;;;;;;5044774;28;20480;-63
2023/08/11 06:57:04;;;;;;;14.90;9.55;;;18.80;99.90;;;;;;5044233;28;20048;-63
2023/08/11 06:59:30;;;;;;;13.85;9.43;;;18.90;99.90;;;;;;5051417;28;20041;-63
2023/08/11 07:01:57;;;;;;;13.55;9.60;;;19.00;99.90;;;;;;5049813;28;20158;-62
2023/08/11 07:04:23;;;;;;;10.38;8.32;;;19.10;99.90;;;;;;5049089;28;20480;-63
2023/08/11 07:06:48;;;;;;;10.73;8.38;;;19.10;99.90;;;;;;5041694;28;20162;-63
2023/08/11 07:09:15;;;;;;;10.88;8.90;;;19.30;99.90;;;;;;5048655;28;20041;-63
2023/08/11 07:11:41;;;;;;;11.15;9.32;;;19.30;99.90;;;;;;5035353;28;20041;-63
2023/08/11 07:14:06;;;;;;;9.38;8.38;;;19.40;99.90;;;;;;5043661;28;20587;-63
2023/08/11 07:16:32;;;;;;;10.27;8.40;;;19.50;99.90;;;;;;5052909;28;20055;-63
2023/08/11 07:18:58;;;;;;;11.90;8.77;;;19.60;99.90;;;;;;5053485;28;20048;-64
2023/08/11 07:21:24;;;;;;;9.68;7.65;;;19.70;99.90;;;;;;5035505;28;20441;-64
2023/08/11 07:23:50;;;;;;;9.43;8.00;;;19.80;99.90;;;;;;5053077;28;20074;-63
2023/08/11 07:26:15;;;;;;;10.30;7.80;;;19.90;99.90;;;;;;5049948;28;20094;-63
2023/08/11 07:28:41;;;;;;;10.75;7.40;;;20.00;99.90;;;;;;5033531;28;20051;-63
2023/08/11 07:31:07;;;;;;;8.55;7.40;;;20.20;99.90;;;;;;5050931;28;20040;-64
2023/08/11 07:33:33;;;;;;;8.85;7.60;;;20.30;99.90;;;;;;5048089;28;20115;-64
2023/08/11 07:35:59;;;;;;;11.45;7.07;;;20.40;99.90;;;;;;5038151;28;20068;-63
2023/08/11 07:38:24;;;;;;;21.63;12.77;;;20.50;99.90;;;;;;5031620;28;20431;-63
2023/08/11 07:40:52;;;;;;;8.82;7.93;;;20.50;99.90;;;;;;5053413;28;20112;-63
2023/08/11 07:43:17;;;;;;;7.97;6.95;;;20.60;99.90;;;;;;5048335;28;20033;-63
2023/08/11 07:45:43;;;;;;;8.63;7.22;;;20.80;99.90;;;;;;5046038;28;20144;-64
2023/08/11 07:48:09;;;;;;;17.67;7.85;;;20.80;99.90;;;;;;5045122;28;20044;-62
2023/08/11 07:50:37;;;;;;;10.63;8.48;;;21.00;99.90;;;;;;5040824;28;20029;-67
2023/08/11 07:53:03;;;;;;;10.68;7.78;;;21.10;99.90;;;;;;5041881;28;20614;-63
2023/08/11 07:55:29;;;;;;;10.98;8.13;;;21.10;99.90;;;;;;5056229;28;20041;-63
2023/08/11 07:57:54;;;;;;;11.30;7.78;;;21.30;99.90;;;;;;5040325;28;20095;-62
2023/08/11 08:00:24;;;;;;;12.10;7.57;;;21.30;99.90;;;;;;5046241;28;20400;-62
2023/08/11 08:02:52;;;;;;;11.40;8.00;;;21.40;99.90;;;;;;5046594;28;20550;-61
2023/08/11 08:05:17;;;;;;;11.10;7.55;;;21.60;99.90;;;;;;5050273;28;20110;-60
2023/08/11 08:07:43;;;;;;;14.05;8.10;;;21.60;99.90;;;;;;5050455;28;20033;-65
2023/08/11 08:10:11;;;;;;;9.68;6.70;;;21.70;99.90;;;;;;5042204;28;20032;-62
2023/08/11 08:12:37;;;;;;;9.55;7.05;;;21.80;99.90;;;;;;5051076;28;20640;-61
2023/08/11 08:15:05;;;;;;;10.57;7.70;;;21.80;99.90;;;;;;5049122;28;20040;-60
2023/08/11 08:17:31;;;;;;;9.38;6.75;;;22.00;99.90;;;;;;5045377;28;20106;-60
2023/08/11 08:19:57;;;;;;;9.90;6.32;;;22.00;99.90;;;;;;5048755;28;20029;-59
2023/08/11 08:22:23;;;;;;;10.38;7.03;;;22.20;99.90;;;;;;5044540;28;20066;-58
2023/08/11 08:24:49;;;;;;;11.10;6.78;;;22.20;99.90;;;;;;5048550;28;20052;-59
2023/08/11 08:27:17;;;;;;;9.90;6.30;;;22.30;99.90;;;;;;5048382;28;20040;-64
2023/08/11 08:29:43;;;;;;;8.98;6.97;;;22.30;99.90;;;;;;5045557;28;20116;-60
2023/08/11 08:32:09;;;;;;;10.48;6.40;;;22.40;99.90;;;;;;5048114;28;20062;-62
2023/08/11 08:34:35;;;;;;;10.00;6.25;;;22.50;99.90;;;;;;5042400;28;20047;-65
2023/08/11 08:37:00;;;;;;;7.50;5.45;;;22.60;99.90;;;;;;5046244;28;20434;-59
2023/08/11 08:39:26;;;;;;;8.38;5.75;;;22.70;99.90;;;;;;5048944;28;20052;-58
2023/08/11 08:41:54;;;;;;;9.20;5.38;;;22.70;99.90;;;;;;5051954;28;20041;-60
2023/08/11 08:44:20;;;;;;;9.38;6.38;;;22.80;99.90;;;;;;5031422;28;20611;-58
2023/08/11 08:46:50;;;;;;;11.73;5.70;;;22.90;99.90;;;;;;5043440;28;20068;-58
2023/08/11 08:49:26;;;;;;;8.75;5.03;;;23.00;99.90;;;;;;5040750;28;20040;-60
2023/08/11 08:51:56;;;;;;;8.75;5.45;;;23.10;99.90;;;;;;5051025;28;20112;-58
2023/08/11 08:54:23;;;;;;;8.93;4.88;;;23.20;99.90;;;;;;5046759;28;20041;-57
2023/08/11 08:56:52;;;;;;;9.90;5.57;;;23.30;99.90;;;;;;5023313;28;21290;-59
2023/08/11 08:59:17;;;;;;;7.88;4.97;;;23.30;99.90;;;;;;5050234;28;20036;-60
2023/08/11 09:01:44;;;;;;;8.23;5.13;;;23.40;99.90;;;;;;5048574;28;20049;-60
2023/08/11 09:04:10;;;;;;;8.68;5.05;;;23.50;99.90;;;;;;5042783;28;20127;-59
2023/08/11 09:06:38;;;;;;;8.38;5.57;;;23.60;99.90;;;;;;5050938;28;20084;-58
2023/08/11 09:09:05;;;;;;;8.90;4.75;;;23.60;99.90;;;;;;5051546;28;20068;-60
2023/08/11 09:11:30;;;;;;;7.82;5.07;;;23.70;99.90;;;;;;5056479;28;20041;-59
2023/08/11 09:14:07;;;;;;;7.75;5.00;;;23.80;99.90;;;;;;5054508;28;20089;-58
2023/08/11 09:16:38;;;;;;;7.25;4.60;;;23.90;99.90;;;;;;5049761;28;20048;-59
2023/08/11 09:19:08;;;;;;;7.90;4.57;;;24.00;99.90;;;;;;5039817;28;20144;-60
2023/08/11 09:21:34;;;;;;;7.63;4.18;;;24.00;99.90;;;;;;5024989;28;20045;-61
2023/08/11 09:24:00;;;;;;;9.40;5.07;;;24.10;99.90;;;;;;5041137;28;20037;-59
2023/08/11 09:26:27;;;;;;;7.57;4.60;;;24.20;99.90;;;;;;5048334;28;20122;-58
2023/08/11 09:28:53;;;;;;;7.40;3.80;;;24.30;99.90;;;;;;5050831;28;20040;-63
2023/08/11 09:31:23;;;;;;;5.88;4.03;;;24.50;99.90;;;;;;5044907;28;20041;-61
2023/08/11 09:33:50;;;;;;;7.05;4.38;;;24.60;99.90;;;;;;5049943;28;20040;-59
2023/08/11 09:36:17;;;;;;;7.38;4.15;;;24.60;99.90;;;;;;5041804;28;20119;-61
2023/08/11 09:38:47;;;;;;;7.35;4.28;;;24.70;99.90;;;;;;5049976;28;20070;-59
2023/08/11 09:41:14;;;;;;;7.45;4.35;;;24.70;99.90;;;;;;5043194;28;20526;-60
2023/08/11 09:43:45;;;;;;;6.45;3.97;;;24.70;99.90;;;;;;5051911;28;20065;-59
2023/08/11 09:46:11;;;;;;;8.48;4.35;;;24.70;99.90;;;;;;5052332;28;20116;-60
2023/08/11 09:48:37;;;;;;;6.15;4.05;;;24.60;99.90;;;;;;5053414;28;20125;-60
2023/08/11 09:51:05;;;;;;;4.70;3.58;;;24.70;99.90;;;;;;5043004;28;20033;-60
2023/08/11 09:53:33;;;;;;;7.10;3.45;;;24.80;99.90;;;;;;5053652;28;20688;-59
2023/08/11 09:55:59;;;;;;;7.25;3.85;;;24.90;99.90;;;;;;5042045;28;20049;-59
2023/08/11 09:58:27;;;;;;;5.13;3.50;;;25.00;99.90;;;;;;5050030;28;20043;-58
2023/08/11 10:00:54;;;;;;;9.05;4.30;;;25.00;99.90;;;;;;5050590;28;20044;-59
2023/08/11 10:03:26;;;;;;;4.70;3.40;;;25.10;99.90;;;;;;5049246;28;20032;-60
2023/08/11 10:05:54;;;;;;;5.85;3.90;;;25.10;99.90;;;;;;5059919;28;20045;-58
2023/08/11 10:08:22;;;;;;;7.50;4.07;;;25.10;99.90;;;;;;5055207;28;20494;-60
2023/08/11 10:10:48;;;;;;;9.65;3.83;;;25.00;99.90;;;;;;5054886;28;20045;-60
2023/08/11 10:13:26;;;;;;;8.48;4.03;;;24.90;99.90;;;;;;5049028;28;20044;-60
2023/08/11 10:15:54;;;;;;;7.25;3.95;;;24.90;99.90;;;;;;5044104;28;20064;-60
2023/08/11 10:18:20;;;;;;;6.07;3.60;;;25.00;99.90;;;;;;5043820;28;20104;-60
2023/08/11 10:20:50;;;;;;;6.80;3.40;;;25.10;99.90;;;;;;5050579;28;20040;-61
2023/08/11 10:23:17;;;;;;;7.47;3.80;;;25.30;99.90;;;;;;5053816;28;20126;-60
2023/08/11 10:25:47;;;;;;;8.27;3.88;;;25.60;99.90;;;;;;5043163;28;20534;-61
2023/08/11 10:28:15;;;;;;;8.55;3.60;;;25.70;99.90;;;;;;5055788;28;20506;-60
2023/08/11 10:30:40;;;;;;;12.73;4.82;;;25.90;99.90;;;;;;5052582;28;20033;-60
2023/08/11 10:33:08;;;;;;;6.45;3.25;;;26.00;99.90;;;;;;5045598;28;20542;-60
2023/08/11 10:35:46;;;;;;;7.03;3.33;;;26.00;99.70;;;;;;5055687;28;20065;-62
2023/08/11 10:38:12;;;;;;;5.47;3.05;;;26.00;99.70;;;;;;5048306;28;20048;-63
2023/08/11 10:40:39;;;;;;;7.10;3.75;;;26.10;99.60;;;;;;5047778;28;20079;-61
2023/08/11 10:43:06;;;;;;;6.28;3.65;;;26.20;99.60;;;;;;5045218;28;20123;-61
2023/08/11 10:45:33;;;;;;;6.32;3.40;;;26.10;99.20;;;;;;5052695;28;20068;-62
2023/08/11 10:47:59;;;;;;;6.25;3.10;;;26.10;99.50;;;;;;5040787;28;20041;-61
2023/08/11 10:50:27;;;;;;;8.30;3.42;;;26.30;99.60;;;;;;5072514;22;20044;-55
2023/08/11 10:53:06;;;;;;;6.65;3.80;;;26.40;99.80;;;;;;5066746;28;20040;-53
2023/08/11 10:55:36;;;;;;;7.38;3.80;;;26.60;99.30;;;;;;5082807;28;20209;-56
2023/08/11 10:58:17;;;;;;;4.82;3.45;;;26.70;99.50;;;;;;5053883;28;20040;-53
2023/08/11 11:00:43;;;;;;;7.05;4.00;;;26.80;99.30;;;;;;5074088;28;20478;-55
2023/08/11 11:03:11;;;;;;;5.07;4.15;;;26.90;99.30;;;;;;5108926;22;20032;-59
2023/08/11 11:05:40;;;;;;;5.85;3.90;;;26.90;99.30;;;;;;5089435;28;20084;-59
2023/08/11 11:08:06;;;;;;;5.60;3.50;;;27.00;99.40;;;;;;5066859;28;20401;-59
2023/08/11 11:10:32;;;;;;;7.82;4.00;;;27.00;99.40;;;;;;5090136;28;20039;-59
2023/08/11 11:12:57;;;;;;;6.07;3.00;;;27.10;99.50;;;;;;5047176;28;20109;-59
2023/08/11 11:15:26;;;;;;;5.60;3.28;;;27.00;99.20;;;;;;5083172;28;20036;-59
2023/08/11 11:17:52;;;;;;;4.72;3.70;;;27.00;99.30;;;;;;5076703;28;20062;-59
2023/08/11 11:20:18;;;;;;;7.22;4.07;;;27.00;99.20;;;;;;5064354;28;20194;-59
2023/08/11 11:22:49;;;;;;;4.25;3.00;;;27.00;99.50;;;;;;5060385;28;20430;-59
2023/08/11 11:25:20;;;;;;;7.78;3.33;;;26.90;99.30;;;;;;5062069;28;20068;-59
2023/08/11 11:27:46;;;;;;;6.07;3.67;;;26.90;99.40;;;;;;5085735;28;20040;-59
2023/08/11 11:30:13;;;;;;;6.60;3.75;;;26.90;99.70;;;;;;5050447;28;20051;-59
2023/08/11 11:32:40;;;;;;;4.65;3.38;;;27.00;99.80;;;;;;5063725;28;20123;-59
2023/08/11 11:35:08;;;;;;;5.63;3.42;;;27.10;99.40;;;;;;5063457;28;20079;-59
2023/08/11 11:37:34;;;;;;;6.50;3.70;;;27.10;99.30;;;;;;5086343;28;20055;-59
2023/08/11 11:40:04;;;;;;;4.75;3.50;;;27.20;99.30;;;;;;5067700;28;20529;-59
2023/08/11 11:42:30;;;;;;;5.85;3.78;;;27.30;99.30;;;;;;5067295;28;20576;-59
2023/08/11 11:44:57;;;;;;;9.50;4.03;;;27.50;99.20;;;;;;5067077;28;20035;-59
2023/08/11 11:47:23;;;;;;;6.10;3.40;;;27.60;99.00;;;;;;5071314;28;20067;-58
2023/08/11 11:50:04;;;;;;;5.13;4.03;;;27.60;98.90;;;;;;5089008;28;20067;-59
2023/08/11 11:52:30;;;;;;;4.53;3.58;;;27.70;98.60;;;;;;5066261;28;20119;-59
2023/08/11 11:54:56;;;;;;;7.18;3.53;;;27.70;98.90;;;;;;5062460;28;20469;-58
2023/08/11 11:57:22;;;;;;;5.53;3.20;;;27.80;98.80;;;;;;5068532;28;20031;-59
2023/08/11 11:59:53;;;;;;;8.68;3.92;;;27.80;98.60;;;;;;5065244;28;20120;-59
2023/08/11 12:02:19;;;;;;;5.72;3.17;;;27.80;98.70;;;;;;5086569;28;20130;-59
2023/08/11 12:04:47;;;;;;;8.60;3.38;;;27.70;98.50;;;;;;5070611;28;20047;-60
2023/08/11 12:07:29;;;;;;;7.30;3.63;;;27.80;98.30;;;;;;5067345;28;20181;-59
2023/08/11 12:09:55;;;;;;;6.23;3.30;;;27.70;98.00;;;;;;5050452;28;20076;-60
2023/08/11 12:12:25;;;;;;;7.90;3.70;;;27.70;98.40;;;;;;5086373;28;20328;-59
2023/08/11 12:14:52;;;;;;;5.22;3.17;;;27.60;98.60;;;;;;5085327;28;20043;-59
2023/08/11 12:17:17;;;;;;;7.05;3.33;;;27.50;98.40;;;;;;5048108;28;20093;-59
2023/08/11 12:19:46;;;;;;;5.68;3.40;;;27.50;98.50;;;;;;5080927;28;20051;-59
2023/08/11 12:22:12;;;;;;;7.25;3.40;;;27.70;98.80;;;;;;5082399;28;20028;-60
2023/08/11 12:24:38;;;;;;;7.80;3.40;;;27.90;98.50;;;;;;5085954;28;20063;-59
2023/08/11 12:27:04;;;;;;;4.53;3.30;;;27.90;98.30;;;;;;5079490;28;20484;-58
2023/08/11 12:29:30;;;;;;;5.60;3.20;;;27.80;97.90;;;;;;5046344;28;20402;-59
2023/08/11 12:31:57;;;;;;;5.00;3.50;;;27.90;97.90;;;;;;5065101;28;20561;-59
2023/08/11 12:34:23;;;;;;;6.07;3.25;;;27.90;98.10;;;;;;5067523;28;20070;-59
2023/08/11 12:36:49;;;;;;;3.30;2.78;;;27.80;98.00;;;;;;5065056;28;20211;-59
2023/08/11 12:39:15;;;;;;;6.32;3.65;;;27.80;98.30;;;;;;5083597;28;20036;-59